Badhoevedorp-1 NW  Badhoevedorp-1 NW


Badhoevedorp-2 Zuid  Badhoevedorp-2 Zuid


Onweer radar Meer informatie blitzortung!


Regen radar Meer informatie rain snow radar



Het weer levert geen direct gevaar op.    Er zijn geen waarschuwingen afgegeven.

METAR rapporten vliegvelden

   
EHAM - Schiphol
Gewijzigd: 13-11-2018 01:55
Helder  
Helder  
   Wind: Zuiden 20.4 km/h
Wind: Zuiden 20.4 km/h
Temperatuur: 9°C
Voelt als: 6°C
Dauwpunt: 8°C
Vochtigheid: 94%
Barometer: 1016 hPa
Zicht: meer dan 10 km
Bewolking: Helder
EHAM 130055Z 18011KT CAVOK 09/08 Q1016 NOSIG
EHRD - Rotterdam
Gewijzigd: 13-11-2018 01:55
Gedeeltelijk bewolkt  
Gedeeltelijk bewolkt  
   Wind: Zuiden 20.4 km/h
Wind: Zuiden 20.4 km/h
Temperatuur: 10°C
Voelt als: 7°C
Dauwpunt: 8°C
Vochtigheid: 88%
Barometer: 1016 hPa
Bewolking: Gedeeltelijk bewolkt
Zicht: meer dan 10 km
Bewolking: Gedeeltelijk bewolkt
EHRD 130055Z AUTO 19011KT 160V220 9999 NSC 10/08 Q1016 NOSIG
EHEH - Eindhoven
Gewijzigd: 13-11-2018 01:55
Bewolking  
Bewolking  
   Wind: Zuiden 11.1 km/h
Wind: Zuiden 11.1 km/h
Temperatuur: 9°C
Voelt als: 7°C
Dauwpunt: 8°C
Vochtigheid: 94%
Barometer: 1018 hPa
Bewolking: Bewolking
Zicht: meer dan 10 km
Bewolking: Bewolking 15000 ft
EHEH 130055Z AUTO 18006KT 9999 OVC150 09/08 Q1018 BLU
EHBK - Maastricht
Gewijzigd: 13-11-2018 01:55
Gedeeltelijk bewolkt  
Gedeeltelijk bewolkt  
   Wind: ZZW 14.8 km/h
Wind: ZZW 14.8 km/h
Temperatuur: 9°C
Voelt als: 7°C
Dauwpunt: 8°C
Vochtigheid: 94%
Barometer: 1019 hPa
Bewolking: Gedeeltelijk bewolkt
Zicht: meer dan 10 km
Bewolking: Gedeeltelijk bewolkt 4900 ft
EHBK 130055Z AUTO 20008KT 9999 SCT049 09/08 Q1019
EHGG - Groningen
Gewijzigd: 13-11-2018 01:55
Nevel, Gedeeltelijk bewolkt  
Nevel, Gedeeltelijk bewolkt  
   Wind: Zuiden 13 km/h
Wind: Zuiden 13 km/h
Temperatuur: 8°C
Voelt als: 6°C
Dauwpunt: 7°C
Vochtigheid: 93%
Barometer: 1016 hPa
Bewolking: Gedeeltelijk bewolkt
Zicht: 5 km
Bewolking: Gedeeltelijk bewolkt
EHGG 130055Z AUTO 19007KT 5000 BR NSC 08/07 Q1016
EHGR - Gilze Rijen
Gewijzigd: 13-11-2018 01:55
Bewolking  
Bewolking  
   Wind: Zuiden 16.7 km/h
Wind: Zuiden 16.7 km/h
Temperatuur: 9°C
Voelt als: 7°C
Dauwpunt: 8°C
Vochtigheid: 94%
Barometer: 1017 hPa
Bewolking: Bewolking
Zicht: meer dan 10 km
Bewolking: Bewolking 18000 ft
EHGR 130055Z AUTO 19009KT 130V210 9999 OVC180 09/08 Q1017 BLU

Script ontwikkeld door  Saratoga-weather.org Aangepast voor de template door  Weerstation Leuven